createdAt,value
2022-11-28T00:01:41.305Z,7.50
2022-11-28T00:04:08.992Z,7.90
2022-11-28T00:06:42.071Z,7.70
2022-11-28T00:09:09.097Z,7.70
2022-11-28T00:11:35.766Z,7.60
2022-11-28T00:14:04.532Z,7.70
2022-11-28T00:16:31.375Z,8.10
2022-11-28T00:19:00.312Z,8.40
2022-11-28T00:21:27.862Z,8.40
2022-11-28T00:23:54.653Z,8.10
2022-11-28T00:26:24.352Z,8.00
2022-11-28T00:28:51.254Z,8.30
2022-11-28T00:31:27.300Z,8.10
2022-11-28T00:33:54.845Z,8.20
2022-11-28T00:36:22.302Z,8.20
2022-11-28T00:38:50.039Z,8.00
2022-11-28T00:41:20.124Z,8.10
2022-11-28T00:43:48.697Z,8.80
2022-11-28T00:46:16.139Z,8.40
2022-11-28T00:48:43.044Z,8.30
2022-11-28T00:51:13.460Z,8.10
2022-11-28T00:53:43.058Z,8.00
2022-11-28T00:56:12.828Z,8.20
2022-11-28T00:58:40.350Z,7.90
2022-11-28T01:01:16.814Z,7.90
2022-11-28T01:03:44.724Z,8.00
2022-11-28T01:06:12.822Z,8.20
2022-11-28T01:08:39.674Z,8.20
2022-11-28T01:11:12.686Z,8.10
2022-11-28T01:13:40.280Z,9.40
2022-11-28T01:16:07.931Z,8.50
2022-11-28T01:18:35.012Z,8.30
2022-11-28T01:21:01.960Z,8.20
2022-11-28T01:23:28.688Z,8.30
2022-11-28T01:25:55.750Z,8.30
2022-11-28T01:28:22.536Z,8.40
2022-11-28T01:30:49.311Z,8.60
2022-11-28T01:33:16.007Z,9.40
2022-11-28T01:35:42.844Z,8.80
2022-11-28T01:38:09.544Z,8.80
2022-11-28T01:40:36.410Z,8.60
2022-11-28T01:43:03.286Z,8.50
2022-11-28T01:45:32.204Z,8.60
2022-11-28T01:48:02.852Z,8.50
2022-11-28T01:50:32.783Z,8.70
2022-11-28T01:53:05.715Z,9.00
2022-11-28T01:55:39.892Z,9.40
2022-11-28T01:58:06.899Z,9.10
2022-11-28T02:00:34.830Z,9.30
2022-11-28T02:03:09.211Z,9.10
2022-11-28T02:06:05.714Z,8.90
2022-11-28T02:08:36.323Z,9.00
2022-11-28T02:11:06.088Z,9.10
2022-11-28T02:14:00.280Z,9.50
2022-11-28T02:16:49.007Z,8.80
2022-11-28T02:19:48.681Z,9.50
2022-11-28T02:22:44.746Z,9.10
2022-11-28T02:25:33.716Z,9.50
2022-11-28T02:28:43.728Z,10.10
2022-11-28T02:31:25.570Z,9.30
2022-11-28T02:33:56.309Z,10.00
2022-11-28T02:36:34.131Z,9.40
2022-11-28T02:39:12.643Z,9.30
2022-11-28T02:41:45.116Z,9.70
2022-11-28T02:44:17.844Z,9.30
2022-11-28T02:46:58.102Z,11.20
2022-11-28T02:50:01.642Z,11.00
2022-11-28T02:52:38.680Z,10.90
2022-11-28T02:55:07.466Z,10.40
2022-11-28T02:57:46.367Z,9.70
2022-11-28T03:00:31.820Z,9.80
2022-11-28T03:03:23.702Z,9.90
2022-11-28T03:06:22.786Z,10.10
2022-11-28T03:09:24.936Z,10.20
2022-11-28T03:12:10.139Z,11.40
2022-11-28T03:14:51.786Z,10.40
2022-11-28T03:17:27.452Z,10.20
2022-11-28T03:20:14.849Z,10.60
2022-11-28T03:23:04.521Z,10.20
2022-11-28T03:25:41.231Z,10.50
2022-11-28T03:28:52.084Z,9.90
2022-11-28T03:31:29.951Z,10.70
2022-11-28T03:33:59.640Z,10.30
2022-11-28T03:36:38.543Z,9.50
2022-11-28T03:39:10.719Z,10.20
2022-11-28T03:41:47.235Z,9.60
2022-11-28T03:44:28.677Z,9.80
2022-11-28T03:46:58.790Z,9.40
2022-11-28T03:49:33.686Z,9.90
2022-11-28T03:52:12.079Z,11.20
2022-11-28T03:55:03.890Z,10.40
2022-11-28T03:57:38.508Z,9.80
2022-11-28T04:00:12.921Z,9.80
2022-11-28T04:02:52.069Z,9.60
2022-11-28T04:05:32.332Z,9.50
2022-11-28T04:08:11.382Z,9.60
2022-11-28T04:11:27.066Z,9.30
2022-11-28T04:14:06.380Z,9.30
2022-11-28T04:17:03.873Z,9.70
2022-11-28T04:19:53.661Z,9.00
2022-11-28T04:22:55.791Z,9.50
2022-11-28T04:25:23.845Z,9.40
2022-11-28T04:27:57.501Z,9.40
2022-11-28T04:30:25.126Z,9.70
2022-11-28T04:32:59.009Z,9.30
2022-11-28T04:35:31.349Z,9.20
2022-11-28T04:38:00.286Z,9.00
2022-11-28T04:40:29.444Z,9.00
2022-11-28T04:43:00.589Z,9.00
2022-11-28T04:45:33.268Z,9.10
2022-11-28T04:48:00.758Z,9.80
2022-11-28T04:50:47.238Z,10.60
2022-11-28T04:53:32.437Z,10.50
2022-11-28T04:56:04.979Z,9.30
2022-11-28T04:58:37.489Z,9.40
2022-11-28T05:01:09.649Z,9.40
2022-11-28T05:03:42.553Z,9.90
2022-11-28T05:06:09.735Z,9.40
2022-11-28T05:08:36.536Z,9.00
2022-11-28T05:11:03.332Z,8.80
2022-11-28T05:13:30.017Z,9.30
2022-11-28T05:16:00.829Z,9.00
2022-11-28T05:18:27.650Z,10.10
2022-11-28T05:20:54.425Z,10.00
2022-11-28T05:23:21.135Z,9.30
2022-11-28T05:25:47.849Z,9.10
2022-11-28T05:28:14.505Z,9.60
2022-11-28T05:30:41.323Z,9.30
2022-11-28T05:33:07.996Z,9.00
2022-11-28T05:35:34.666Z,9.40
2022-11-28T05:38:01.333Z,9.20
2022-11-28T05:40:28.159Z,11.00
2022-11-28T05:42:55.170Z,9.70
2022-11-28T05:45:21.979Z,9.60
2022-11-28T05:47:48.721Z,9.50
2022-11-28T05:50:15.548Z,9.60
2022-11-28T05:52:42.343Z,9.60
2022-11-28T05:55:09.601Z,9.10
2022-11-28T05:57:36.312Z,9.40
2022-11-28T06:00:03.665Z,10.10
2022-11-28T06:02:30.411Z,9.70
2022-11-28T06:05:07.291Z,9.30
2022-11-28T06:07:49.314Z,9.60
2022-11-28T06:10:16.164Z,9.30
2022-11-28T06:12:42.889Z,9.10
2022-11-28T06:15:10.090Z,9.00
2022-11-28T06:17:36.779Z,8.80
2022-11-28T06:20:04.939Z,9.10
2022-11-28T06:22:31.641Z,9.30
2022-11-28T06:24:58.398Z,9.40
2022-11-28T06:27:25.160Z,9.20
2022-11-28T06:29:51.894Z,9.00
2022-11-28T06:32:21.997Z,9.10
2022-11-28T06:34:48.970Z,9.10
2022-11-28T06:37:15.682Z,9.10
2022-11-28T06:39:42.715Z,9.10
2022-11-28T06:42:09.762Z,9.30
2022-11-28T06:44:36.426Z,9.10
2022-11-28T06:47:03.253Z,9.10
2022-11-28T06:49:30.032Z,9.50
2022-11-28T06:51:56.768Z,9.20
2022-11-28T06:54:23.534Z,9.00
2022-11-28T06:56:50.505Z,9.10
2022-11-28T06:59:17.196Z,8.90
2022-11-28T07:01:44.173Z,8.70
2022-11-28T07:04:10.986Z,8.60
2022-11-28T07:06:38.253Z,9.10
2022-11-28T07:09:04.985Z,8.80
2022-11-28T07:11:32.487Z,9.10
2022-11-28T07:14:02.312Z,8.70
2022-11-28T07:16:32.171Z,8.70
2022-11-28T07:18:59.680Z,8.50
2022-11-28T07:21:27.181Z,8.50
2022-11-28T07:23:54.396Z,8.50
2022-11-28T07:26:22.025Z,8.40
2022-11-28T07:28:50.023Z,8.50
2022-11-28T07:31:22.986Z,8.50
2022-11-28T07:33:50.935Z,8.60
2022-11-28T07:36:27.996Z,8.50
2022-11-28T07:39:01.214Z,8.50
2022-11-28T07:41:30.090Z,8.70
2022-11-28T07:44:01.133Z,8.70
2022-11-28T07:46:29.872Z,8.70
2022-11-28T07:49:00.239Z,8.80
2022-11-28T07:51:30.719Z,8.70
2022-11-28T07:53:57.689Z,8.70
2022-11-28T07:56:44.353Z,8.60
2022-11-28T07:59:14.738Z,8.60
2022-11-28T08:01:41.741Z,8.90
2022-11-28T08:04:09.579Z,9.30
2022-11-28T08:06:39.555Z,9.30
2022-11-28T08:09:07.129Z,9.20
2022-11-28T08:11:34.668Z,9.10
2022-11-28T08:14:01.937Z,8.90
2022-11-28T08:16:31.204Z,8.90
2022-11-28T08:19:01.147Z,8.90
2022-11-28T08:21:30.512Z,8.90
2022-11-28T08:24:00.441Z,9.00
2022-11-28T08:26:30.966Z,9.00
2022-11-28T08:28:59.151Z,9.00
2022-11-28T08:31:29.111Z,8.90
2022-11-28T08:33:58.066Z,8.80
2022-11-28T08:36:24.806Z,8.90
2022-11-28T08:41:38.778Z,9.00
2022-11-28T08:44:05.441Z,9.00
2022-11-28T08:46:32.636Z,9.00
2022-11-28T08:49:04.249Z,9.00
2022-11-28T08:51:31.498Z,9.00
2022-11-28T08:53:59.797Z,9.00
2022-11-28T08:56:27.490Z,9.00
2022-11-28T08:58:55.015Z,9.00
2022-11-28T09:01:24.330Z,9.00
2022-11-28T09:03:51.924Z,9.10
2022-11-28T09:06:20.664Z,9.00
2022-11-28T09:08:48.632Z,9.00
2022-11-28T09:11:17.672Z,9.50
2022-11-28T09:13:44.733Z,9.60
2022-11-28T09:16:12.079Z,9.50
2022-11-28T09:18:38.797Z,9.60
2022-11-28T09:21:09.369Z,9.30
2022-11-28T09:23:37.338Z,9.20
2022-11-28T09:26:24.564Z,9.30
2022-11-28T09:28:51.483Z,9.20
2022-11-28T09:31:20.207Z,9.30
2022-11-28T09:33:49.114Z,9.40
2022-11-28T09:36:20.064Z,9.30
2022-11-28T09:38:47.260Z,9.20
2022-11-28T09:41:50.734Z,9.50
2022-11-28T09:44:29.359Z,9.30
2022-11-28T09:46:59.663Z,9.00
2022-11-28T09:49:40.267Z,9.10
2022-11-28T09:52:42.998Z,9.10
2022-11-28T09:55:32.394Z,9.00
2022-11-28T09:58:04.482Z,9.50
2022-11-28T10:00:43.841Z,9.20
2022-11-28T10:03:45.147Z,9.20
2022-11-28T10:06:20.462Z,9.10
2022-11-28T10:09:08.926Z,9.10
2022-11-28T10:11:41.190Z,9.20
2022-11-28T10:14:25.837Z,9.60
2022-11-28T10:17:01.956Z,9.20
2022-11-28T10:19:57.368Z,9.20
2022-11-28T10:22:37.300Z,9.10
2022-11-28T10:25:11.762Z,9.10
2022-11-28T10:27:40.983Z,9.30
2022-11-28T10:30:25.574Z,9.90
2022-11-28T10:33:25.415Z,9.50
2022-11-28T10:36:03.341Z,9.60
2022-11-28T10:38:34.153Z,9.40
2022-11-28T10:41:28.835Z,9.30
2022-11-28T10:44:04.674Z,9.20
2022-11-28T10:46:56.733Z,9.30
2022-11-28T10:49:54.944Z,9.30
2022-11-28T10:52:30.545Z,9.20
2022-11-28T10:55:28.374Z,9.30
2022-11-28T10:58:24.572Z,9.40
2022-11-28T11:00:57.304Z,9.40
2022-11-28T11:03:36.356Z,9.80
2022-11-28T11:06:03.264Z,10.00
2022-11-28T11:08:35.125Z,9.60
2022-11-28T11:11:10.903Z,9.60
2022-11-28T11:14:05.294Z,9.60
2022-11-28T11:16:56.426Z,9.50
2022-11-28T11:19:24.854Z,9.60
2022-11-28T11:22:06.384Z,9.50
2022-11-28T11:24:33.600Z,9.60
2022-11-28T11:27:22.977Z,9.70
2022-11-28T11:29:51.961Z,9.90
2022-11-28T11:32:37.090Z,9.80
2022-11-28T11:35:04.185Z,9.70
2022-11-28T11:37:37.429Z,9.70
2022-11-28T11:40:22.598Z,9.60
2022-11-28T11:42:57.877Z,9.80
2022-11-28T11:45:34.127Z,9.60
2022-11-28T11:48:03.464Z,9.60
2022-11-28T11:50:31.989Z,9.50
2022-11-28T11:53:14.019Z,9.50
2022-11-28T11:55:52.234Z,9.60
2022-11-28T11:58:23.568Z,9.60
2022-11-28T12:00:54.620Z,9.60
2022-11-28T12:03:37.056Z,9.60
2022-11-28T12:06:27.920Z,9.70
2022-11-28T12:09:23.683Z,9.70
2022-11-28T12:12:14.435Z,9.60
2022-11-28T12:14:41.609Z,9.70
2022-11-28T12:20:49.952Z,9.70
2022-11-28T12:23:52.448Z,9.70
2022-11-28T12:26:42.175Z,9.70
2022-11-28T12:29:37.864Z,10.20
2022-11-28T12:32:13.837Z,9.80
2022-11-28T12:35:19.963Z,9.80
2022-11-28T12:38:13.026Z,9.80
2022-11-28T12:41:05.996Z,9.80
2022-11-28T12:44:01.931Z,9.80
2022-11-28T12:47:02.802Z,9.80
2022-11-28T12:49:48.335Z,9.80
2022-11-28T12:52:19.095Z,9.90
2022-11-28T12:55:17.651Z,9.80
2022-11-28T12:57:49.267Z,9.80
2022-11-28T13:00:15.960Z,9.80
2022-11-28T13:03:05.792Z,9.80
2022-11-28T13:05:53.815Z,9.80
2022-11-28T13:08:36.468Z,9.80
2022-11-28T13:11:48.778Z,9.90
2022-11-28T13:14:45.337Z,9.90
2022-11-28T13:17:19.749Z,9.80
2022-11-28T13:19:54.979Z,9.80
2022-11-28T13:22:33.848Z,9.90
2022-11-28T13:25:28.709Z,9.80
2022-11-28T13:28:21.636Z,9.80
2022-11-28T13:30:53.555Z,9.80
2022-11-28T13:33:47.505Z,9.80
2022-11-28T13:39:29.791Z,9.90
2022-11-28T13:42:52.822Z,9.90
2022-11-28T13:48:57.374Z,10.00
2022-11-28T13:51:30.613Z,10.00
2022-11-28T13:54:17.433Z,10.00
2022-11-28T13:57:10.783Z,10.00
2022-11-28T13:59:39.131Z,10.00
2022-11-28T14:02:32.695Z,10.00
2022-11-28T14:04:59.704Z,10.00
2022-11-28T14:07:34.422Z,10.00
2022-11-28T14:10:30.386Z,10.00
2022-11-28T14:13:23.224Z,10.00
2022-11-28T14:16:35.377Z,10.00
2022-11-28T14:19:36.529Z,10.00
2022-11-28T14:22:31.282Z,10.00
2022-11-28T14:25:24.365Z,10.00
2022-11-28T14:27:57.370Z,10.00
2022-11-28T14:30:30.673Z,10.00
2022-11-28T14:33:04.434Z,10.00
2022-11-28T14:35:58.305Z,10.00
2022-11-28T14:38:31.128Z,10.00
2022-11-28T14:41:03.829Z,10.00
2022-11-28T14:43:39.637Z,9.90
2022-11-28T14:46:26.959Z,9.90
2022-11-28T14:48:59.915Z,9.90
2022-11-28T14:51:45.771Z,9.90
2022-11-28T14:54:37.902Z,9.90
2022-11-28T14:57:17.508Z,9.90
2022-11-28T14:59:44.716Z,9.90
2022-11-28T15:02:11.425Z,9.90
2022-11-28T15:04:53.609Z,9.90
2022-11-28T15:07:37.159Z,9.90
2022-11-28T15:10:22.155Z,9.80
2022-11-28T15:13:06.842Z,9.80
2022-11-28T15:15:33.686Z,9.80
2022-11-28T15:18:04.694Z,9.90
2022-11-28T15:20:42.452Z,9.80
2022-11-28T15:23:28.915Z,9.80
2022-11-28T15:25:57.991Z,9.80
2022-11-28T15:28:29.631Z,9.80
2022-11-28T15:30:59.472Z,9.70
2022-11-28T15:33:29.777Z,9.60
2022-11-28T15:36:10.627Z,9.60
2022-11-28T15:38:38.446Z,9.60
2022-11-28T15:41:05.483Z,9.60
2022-11-28T15:43:32.668Z,9.50
2022-11-28T15:46:02.174Z,9.50
2022-11-28T15:48:40.646Z,9.60
2022-11-28T15:51:07.663Z,9.70
2022-11-28T15:53:51.824Z,9.50
2022-11-28T15:56:19.162Z,9.50
2022-11-28T15:58:47.765Z,9.50
2022-11-28T16:01:25.217Z,9.50
2022-11-28T16:04:03.925Z,9.40
2022-11-28T16:06:36.342Z,9.40
2022-11-28T16:09:06.868Z,9.50
2022-11-28T16:11:34.980Z,9.50
2022-11-28T16:14:09.410Z,9.50
2022-11-28T16:16:38.597Z,9.50
2022-11-28T16:19:08.933Z,9.50
2022-11-28T16:21:46.306Z,9.50
2022-11-28T16:24:35.314Z,9.50
2022-11-28T16:27:06.173Z,9.40
2022-11-28T16:29:37.525Z,9.50
2022-11-28T16:32:26.401Z,9.50
2022-11-28T16:34:55.087Z,9.50
2022-11-28T16:37:26.783Z,9.50
2022-11-28T16:40:01.965Z,9.50
2022-11-28T16:42:28.997Z,9.50
2022-11-28T16:44:56.927Z,9.60
2022-11-28T16:47:29.330Z,9.80
2022-11-28T16:50:17.254Z,9.50
2022-11-28T16:52:47.615Z,9.50
2022-11-28T16:55:29.674Z,9.40
2022-11-28T16:58:13.899Z,9.40
2022-11-28T17:01:11.145Z,9.40
2022-11-28T17:03:50.268Z,9.30
2022-11-28T17:06:33.786Z,9.20
2022-11-28T17:09:01.622Z,9.20
2022-11-28T17:11:32.703Z,9.20
2022-11-28T17:14:02.516Z,9.10
2022-11-28T17:16:33.422Z,9.20
2022-11-28T17:19:00.452Z,9.20
2022-11-28T17:21:40.325Z,9.20
2022-11-28T17:24:19.851Z,9.10
2022-11-28T17:26:48.333Z,9.20
2022-11-28T17:29:20.216Z,9.20
2022-11-28T17:31:49.449Z,9.20
2022-11-28T17:34:20.200Z,9.20
2022-11-28T17:36:47.787Z,9.20
2022-11-28T17:39:15.086Z,9.20
2022-11-28T17:41:42.090Z,9.20
2022-11-28T17:44:18.888Z,9.20
2022-11-28T17:46:46.657Z,9.20
2022-11-28T17:49:13.684Z,9.10
2022-11-28T17:51:40.959Z,9.10
2022-11-28T17:54:08.094Z,9.10
2022-11-28T17:56:34.915Z,9.20
2022-11-28T17:59:01.987Z,9.10
2022-11-28T18:01:31.255Z,9.10
2022-11-28T18:03:58.301Z,8.90
2022-11-28T18:06:25.589Z,8.90
2022-11-28T18:08:52.686Z,8.90
2022-11-28T18:11:20.362Z,8.90
2022-11-28T18:13:47.573Z,8.90
2022-11-28T18:16:16.833Z,8.90
2022-11-28T18:18:43.915Z,8.60
2022-11-28T18:21:11.694Z,8.50
2022-11-28T18:23:39.642Z,8.40
2022-11-28T18:26:08.300Z,8.40
2022-11-28T18:28:35.568Z,8.50
2022-11-28T18:31:12.552Z,8.40
2022-11-28T18:33:40.507Z,8.40
2022-11-28T18:36:12.392Z,8.40
2022-11-28T18:38:41.359Z,8.40
2022-11-28T18:41:09.675Z,8.30
2022-11-28T18:43:37.393Z,8.40
2022-11-28T18:46:09.512Z,8.50
2022-11-28T18:48:39.784Z,8.60
2022-11-28T18:51:16.957Z,8.60
2022-11-28T18:53:45.563Z,8.70
2022-11-28T18:56:16.468Z,8.70
2022-11-28T18:58:46.194Z,8.70
2022-11-28T19:01:20.864Z,8.80
2022-11-28T19:03:52.736Z,8.80
2022-11-28T19:06:20.973Z,8.80
2022-11-28T19:08:51.352Z,8.80
2022-11-28T19:11:18.455Z,8.80
2022-11-28T19:13:47.426Z,8.80
2022-11-28T19:16:17.016Z,8.90
2022-11-28T19:18:45.865Z,9.00
2022-11-28T19:21:21.603Z,9.00
2022-11-28T19:23:49.471Z,9.00
2022-11-28T19:26:21.660Z,9.00
2022-11-28T19:28:49.182Z,9.00
2022-11-28T19:31:27.001Z,9.10
2022-11-28T19:34:01.614Z,9.10
2022-11-28T19:36:30.372Z,9.10
2022-11-28T19:38:58.501Z,9.10
2022-11-28T19:41:27.202Z,9.10
2022-11-28T19:43:54.478Z,9.20
2022-11-28T19:46:21.390Z,9.20
2022-11-28T19:48:48.198Z,9.20
2022-11-28T19:51:16.001Z,9.20
2022-11-28T19:53:44.410Z,9.20
2022-11-28T19:56:15.407Z,9.20
2022-11-28T19:58:42.791Z,9.20
2022-11-28T20:01:21.182Z,9.30
2022-11-28T20:03:49.494Z,9.30
2022-11-28T20:06:18.678Z,9.30
2022-11-28T20:08:46.469Z,9.30
2022-11-28T20:11:15.709Z,9.50
2022-11-28T20:13:42.966Z,9.60
2022-11-28T20:16:11.597Z,9.70
2022-11-28T20:18:39.623Z,10.10
2022-11-28T20:21:07.702Z,9.70
2022-11-28T20:23:38.640Z,9.60
2022-11-28T20:26:07.914Z,9.50
2022-11-28T20:28:37.666Z,9.50
2022-11-28T20:31:06.249Z,9.40
2022-11-28T20:33:33.668Z,9.60
2022-11-28T20:36:08.514Z,10.00
2022-11-28T20:38:35.701Z,10.30
2022-11-28T20:41:07.481Z,10.30
2022-11-28T20:43:36.654Z,11.10
2022-11-28T20:46:05.362Z,10.90
2022-11-28T20:48:59.898Z,10.70
2022-11-28T20:51:29.474Z,10.50
2022-11-28T20:53:58.147Z,10.60
2022-11-28T20:56:29.639Z,10.00
2022-11-28T20:58:59.345Z,9.90
2022-11-28T21:01:29.105Z,9.80
2022-11-28T21:03:56.145Z,9.90
2022-11-28T21:06:25.528Z,10.40
2022-11-28T21:08:52.397Z,10.10
2022-11-28T21:11:55.122Z,9.90
2022-11-28T21:14:10.595Z,9.50
2022-11-28T21:16:37.594Z,9.50
2022-11-28T21:19:09.156Z,9.70
2022-11-28T21:21:38.877Z,9.90
2022-11-28T21:24:10.635Z,9.80
2022-11-28T21:26:41.579Z,9.60
2022-11-28T21:29:12.164Z,9.40
2022-11-28T21:31:43.202Z,9.70
2022-11-28T21:34:16.738Z,9.20
2022-11-28T21:36:44.015Z,9.00
2022-11-28T21:39:13.991Z,8.90
2022-11-28T21:41:41.046Z,9.00
2022-11-28T21:44:07.818Z,8.90
2022-11-28T21:46:34.665Z,8.80
2022-11-28T21:49:01.992Z,8.90
2022-11-28T21:51:28.860Z,8.90
2022-11-28T21:53:57.410Z,8.80
2022-11-28T21:56:24.866Z,8.90
2022-11-28T21:58:51.634Z,8.80
2022-11-28T22:01:18.756Z,8.90
2022-11-28T22:03:45.675Z,8.90
2022-11-28T22:06:23.906Z,8.90
2022-11-28T22:08:51.674Z,8.80
2022-11-28T22:11:20.235Z,8.80
2022-11-28T22:13:53.165Z,8.80
2022-11-28T22:16:25.490Z,8.80
2022-11-28T22:18:54.634Z,8.80
2022-11-28T22:21:50.482Z,8.90
2022-11-28T22:24:10.071Z,8.80
2022-11-28T22:26:37.000Z,8.90
2022-11-28T22:29:04.191Z,8.80
2022-11-28T22:31:31.465Z,8.90
2022-11-28T22:33:58.437Z,8.80
2022-11-28T22:36:25.414Z,8.90
2022-11-28T22:38:57.099Z,8.90
2022-11-28T22:41:29.035Z,8.90
2022-11-28T22:43:59.477Z,8.80
2022-11-28T22:46:26.370Z,8.80
2022-11-28T22:48:53.127Z,8.80
2022-11-28T22:51:23.788Z,8.80
2022-11-28T22:53:55.412Z,8.80
2022-11-28T22:56:22.835Z,8.80
2022-11-28T22:58:49.820Z,8.80
2022-11-28T23:01:19.915Z,8.80
2022-11-28T23:03:47.196Z,8.80
2022-11-28T23:06:19.877Z,8.80
2022-11-28T23:08:47.785Z,8.80
2022-11-28T23:11:20.265Z,8.80
2022-11-28T23:13:48.301Z,8.80
2022-11-28T23:16:20.704Z,8.70
2022-11-28T23:18:49.363Z,8.60
2022-11-28T23:21:17.711Z,8.70
2022-11-28T23:23:46.066Z,8.70
2022-11-28T23:26:16.187Z,8.70
2022-11-28T23:28:43.230Z,8.80
2022-11-28T23:31:12.905Z,8.80
2022-11-28T23:33:40.054Z,8.80
2022-11-28T23:36:28.587Z,8.80
2022-11-28T23:38:57.716Z,8.70
2022-11-28T23:41:25.569Z,8.80
2022-11-28T23:43:52.573Z,8.70
2022-11-28T23:46:20.283Z,8.70
2022-11-28T23:48:47.777Z,8.70
2022-11-28T23:51:16.040Z,8.70
2022-11-28T23:53:44.075Z,8.70
2022-11-28T23:56:13.444Z,8.70
2022-11-28T23:58:41.472Z,8.70
